createdAt,value
2017-09-14T00:01:45.546Z,18.30
2017-09-14T00:04:13.033Z,18.20
2017-09-14T00:06:41.301Z,18.40
2017-09-14T00:09:08.788Z,18.40
2017-09-14T00:11:37.038Z,18.40
2017-09-14T00:14:04.520Z,18.40
2017-09-14T00:16:32.794Z,18.50
2017-09-14T00:19:01.045Z,18.50
2017-09-14T00:21:28.536Z,18.50
2017-09-14T00:23:56.789Z,18.50
2017-09-14T00:26:25.025Z,18.50
2017-09-14T00:28:52.512Z,18.60
2017-09-14T00:31:20.010Z,18.50
2017-09-14T00:33:47.522Z,18.50
2017-09-14T00:36:15.031Z,18.60
2017-09-14T00:38:42.517Z,18.60
2017-09-14T00:41:10.010Z,18.70
2017-09-14T00:43:37.507Z,18.60
2017-09-14T00:46:05.001Z,18.70
2017-09-14T00:48:32.519Z,18.80
2017-09-14T00:51:00.782Z,18.50
2017-09-14T00:53:29.035Z,18.50
2017-09-14T00:55:56.539Z,18.50
2017-09-14T00:58:24.053Z,18.60
2017-09-14T01:00:53.095Z,18.50
2017-09-14T01:03:20.588Z,18.50
2017-09-14T01:05:48.079Z,18.60
2017-09-14T01:08:16.363Z,18.40
2017-09-14T01:10:44.624Z,18.40
2017-09-14T01:13:12.122Z,18.40
2017-09-14T01:15:45.625Z,18.40
2017-09-14T02:52:52.856Z,15.50
2017-09-14T02:55:20.362Z,15.30
2017-09-14T02:57:47.850Z,15.50
2017-09-14T03:00:15.336Z,15.10
2017-09-14T03:02:42.822Z,15.20
2017-09-14T03:05:10.342Z,15.30
2017-09-14T03:07:37.834Z,15.20
2017-09-14T03:10:05.339Z,15.00
2017-09-14T03:12:32.827Z,15.00
2017-09-14T03:15:00.327Z,15.00
2017-09-14T03:17:27.817Z,14.80
2017-09-14T03:19:55.304Z,14.70
2017-09-14T03:22:22.796Z,14.60
2017-09-14T03:24:50.282Z,14.70
2017-09-14T03:27:17.779Z,14.60
2017-09-14T03:29:45.260Z,14.70
2017-09-14T03:32:12.751Z,14.80
2017-09-14T03:34:40.255Z,14.60
2017-09-14T03:37:07.747Z,14.60
2017-09-14T03:39:35.226Z,14.60
2017-09-14T03:42:03.507Z,14.40
2017-09-14T03:44:31.001Z,14.40
2017-09-14T03:46:58.497Z,14.30
2017-09-14T03:49:25.990Z,14.30
2017-09-14T03:51:53.492Z,14.30
2017-09-14T03:54:20.982Z,14.40
2017-09-14T03:56:49.272Z,14.30
2017-09-14T03:59:17.522Z,14.20
2017-09-14T04:01:45.015Z,14.10
2017-09-14T04:04:12.495Z,14.20
2017-09-14T04:06:40.003Z,14.10
2017-09-14T04:09:07.492Z,14.00
2017-09-14T04:11:34.994Z,13.90
2017-09-14T04:14:02.473Z,14.00
2017-09-14T04:16:29.968Z,14.10
2017-09-14T04:18:57.451Z,14.00
2017-09-14T04:21:24.972Z,14.10
2017-09-14T04:23:52.463Z,14.00
2017-09-14T04:26:19.973Z,14.00
2017-09-14T04:28:48.208Z,13.80
2017-09-14T04:31:15.692Z,13.80
2017-09-14T04:33:43.946Z,13.90
2017-09-14T04:36:11.443Z,13.80
2017-09-14T04:38:39.726Z,13.60
2017-09-14T04:41:08.609Z,13.60
2017-09-14T04:43:36.866Z,13.60
2017-09-14T04:46:04.338Z,13.60
2017-09-14T04:48:31.840Z,13.60
2017-09-14T04:50:59.333Z,13.70
2017-09-14T04:53:26.838Z,13.60
2017-09-14T04:55:54.325Z,13.40
2017-09-14T04:58:21.818Z,13.50
2017-09-14T05:00:50.806Z,13.70
2017-09-14T05:03:18.313Z,13.70
2017-09-14T05:05:45.803Z,13.70
2017-09-14T05:08:13.323Z,13.40
2017-09-14T05:10:40.816Z,13.40
2017-09-14T05:13:08.318Z,13.50
2017-09-14T05:15:36.562Z,13.50
2017-09-14T05:18:04.076Z,13.50
2017-09-14T05:20:31.553Z,13.50
2017-09-14T05:22:59.087Z,13.40
2017-09-14T05:25:26.583Z,13.50
2017-09-14T05:27:54.076Z,13.50
2017-09-14T05:30:21.587Z,13.40
2017-09-14T05:32:49.067Z,13.40
2017-09-14T05:35:17.030Z,13.40
2017-09-14T05:37:44.534Z,13.40
2017-09-14T05:40:12.809Z,13.30
2017-09-14T05:42:41.062Z,13.40
2017-09-14T05:45:08.564Z,13.40
2017-09-14T05:47:36.049Z,13.20
2017-09-14T05:50:03.575Z,13.10
2017-09-14T05:52:31.061Z,13.20
2017-09-14T05:54:58.567Z,13.10
2017-09-14T05:57:26.846Z,13.10
2017-09-14T05:59:54.358Z,13.10
2017-09-14T06:02:21.859Z,12.90
2017-09-14T06:04:49.376Z,13.10
2017-09-14T06:07:16.865Z,13.30
2017-09-14T06:09:44.353Z,13.40
2017-09-14T06:12:12.626Z,13.40
2017-09-14T06:14:40.904Z,13.50
2017-09-14T06:17:09.150Z,13.50
2017-09-14T06:19:36.651Z,13.50
2017-09-14T06:22:04.135Z,13.50
2017-09-14T06:24:31.645Z,13.50
2017-09-14T06:26:59.907Z,13.50
2017-09-14T06:29:27.428Z,13.50
2017-09-14T06:31:54.909Z,13.40
2017-09-14T06:34:22.411Z,13.40
2017-09-14T06:36:49.913Z,13.30
2017-09-14T06:39:17.391Z,13.30
2017-09-14T06:41:44.921Z,13.10
2017-09-14T06:44:12.423Z,13.30
2017-09-14T06:46:40.703Z,13.40
2017-09-14T06:49:08.956Z,13.20
2017-09-14T06:51:36.458Z,13.10
2017-09-14T06:54:03.959Z,13.30
2017-09-14T06:56:31.479Z,13.10
2017-09-14T06:58:58.968Z,13.20
2017-09-14T07:01:26.482Z,13.00
2017-09-14T07:03:54.747Z,12.90
2017-09-14T07:06:23.002Z,13.10
2017-09-14T07:08:50.488Z,13.10
2017-09-14T07:11:18.767Z,13.10
2017-09-14T07:13:47.009Z,13.10
2017-09-14T07:16:14.776Z,13.10
2017-09-14T07:18:43.784Z,12.60
2017-09-14T07:21:11.291Z,12.50
2017-09-14T07:23:38.777Z,12.80
2017-09-14T07:26:06.259Z,12.80
2017-09-14T07:28:34.521Z,13.00
2017-09-14T07:31:02.000Z,12.90
2017-09-14T07:33:30.273Z,12.70
2017-09-14T07:35:58.528Z,12.70
2017-09-14T07:38:26.132Z,12.70
2017-09-14T07:40:53.634Z,12.70
2017-09-14T07:43:21.143Z,12.80
2017-09-14T07:45:49.399Z,12.80
2017-09-14T07:48:16.905Z,12.80
2017-09-14T07:50:44.385Z,12.80
2017-09-14T07:53:11.892Z,12.80
2017-09-14T07:55:39.395Z,12.60
2017-09-14T07:58:06.898Z,12.70
2017-09-14T08:00:35.150Z,12.60
2017-09-14T08:03:02.673Z,12.60
2017-09-14T08:05:30.157Z,12.70
2017-09-14T08:07:58.962Z,12.50
2017-09-14T08:10:26.471Z,12.50
2017-09-14T08:12:53.978Z,12.50
2017-09-14T08:15:21.479Z,12.40
2017-09-14T08:17:48.985Z,12.30
2017-09-14T08:20:16.501Z,12.30
2017-09-14T08:22:44.029Z,12.50
2017-09-14T08:25:12.286Z,12.80
2017-09-14T08:27:39.789Z,12.80
2017-09-14T08:30:07.274Z,12.60
2017-09-14T08:32:34.778Z,12.50
2017-09-14T08:35:03.024Z,12.90
2017-09-14T08:37:30.525Z,12.90
2017-09-14T08:39:58.784Z,12.90
2017-09-14T08:42:27.052Z,13.10
2017-09-14T08:44:54.560Z,13.10
2017-09-14T08:47:22.063Z,13.10
2017-09-14T08:49:49.578Z,12.80
2017-09-14T08:52:17.081Z,12.50
2017-09-14T08:54:44.573Z,12.80
2017-09-14T08:57:12.093Z,12.80
2017-09-14T08:59:39.564Z,12.50
2017-09-14T09:02:07.067Z,12.60
2017-09-14T09:04:34.571Z,12.60
2017-09-14T09:07:02.071Z,12.70
2017-09-14T09:09:29.558Z,12.60
2017-09-14T09:11:57.059Z,12.80
2017-09-14T09:14:24.538Z,12.70
2017-09-14T09:16:53.392Z,12.70
2017-09-14T09:19:21.518Z,12.70
2017-09-14T09:21:49.018Z,12.60
2017-09-14T09:24:17.075Z,12.70
2017-09-14T09:26:44.572Z,12.70
2017-09-14T09:29:13.983Z,12.90
2017-09-14T09:31:42.231Z,12.90
2017-09-14T09:34:10.494Z,12.70
2017-09-14T09:36:37.987Z,12.60
2017-09-14T09:39:06.247Z,12.90
2017-09-14T09:41:33.746Z,12.90
2017-09-14T09:44:01.233Z,12.60
2017-09-14T09:46:28.727Z,12.60
2017-09-14T09:48:56.249Z,12.30
2017-09-14T09:51:23.754Z,12.20
2017-09-14T09:53:52.134Z,12.20
2017-09-14T09:56:20.396Z,12.30
2017-09-14T09:58:48.329Z,12.30
2017-09-14T10:01:15.832Z,12.30
2017-09-14T10:03:46.043Z,12.30
2017-09-14T10:06:13.522Z,12.20
2017-09-14T10:08:41.774Z,12.30
2017-09-14T10:11:09.255Z,12.30
2017-09-14T10:13:37.522Z,11.80
2017-09-14T10:16:05.927Z,12.00
2017-09-14T10:18:33.423Z,12.00
2017-09-14T10:21:00.923Z,12.10
2017-09-14T10:23:29.197Z,12.40
2017-09-14T10:25:57.456Z,12.10
2017-09-14T10:28:24.946Z,12.10
2017-09-14T10:30:53.207Z,12.00
2017-09-14T10:33:21.480Z,12.10
2017-09-14T10:35:49.757Z,12.00
2017-09-14T10:38:18.933Z,12.20
2017-09-14T10:40:46.420Z,12.10
2017-09-14T10:43:14.678Z,11.90
2017-09-14T10:45:42.177Z,11.90
2017-09-14T10:48:09.649Z,12.00
2017-09-14T10:50:37.137Z,12.40
2017-09-14T10:53:04.613Z,12.10
2017-09-14T10:55:32.125Z,12.00
2017-09-14T10:57:59.630Z,11.80
2017-09-14T11:00:28.004Z,11.60
2017-09-14T11:02:56.261Z,11.70
2017-09-14T11:05:23.962Z,11.70
2017-09-14T11:07:52.227Z,11.80
2017-09-14T11:10:19.732Z,11.70
2017-09-14T11:12:47.248Z,12.10
2017-09-14T11:15:15.495Z,12.30
2017-09-14T11:17:43.001Z,12.20
2017-09-14T11:20:11.265Z,12.20
2017-09-14T11:22:39.528Z,12.40
2017-09-14T11:25:07.030Z,12.40
2017-09-14T11:27:34.546Z,12.20
2017-09-14T11:30:02.056Z,12.40
2017-09-14T11:32:29.563Z,12.50
2017-09-14T11:34:57.042Z,12.30
2017-09-14T11:37:25.299Z,12.00
2017-09-14T11:39:52.787Z,12.00
2017-09-14T11:42:20.281Z,12.20
2017-09-14T11:44:49.152Z,12.20
2017-09-14T11:47:16.659Z,12.10
2017-09-14T11:49:44.154Z,12.30
2017-09-14T11:52:11.654Z,12.30
2017-09-14T11:54:39.166Z,12.40
2017-09-14T11:57:06.662Z,12.40
2017-09-14T11:59:34.154Z,12.40
2017-09-14T12:02:02.411Z,12.20
2017-09-14T12:04:29.888Z,12.20
2017-09-14T12:06:59.087Z,11.80
2017-09-14T12:09:27.339Z,12.10
2017-09-14T12:11:54.830Z,12.10
2017-09-14T12:14:23.098Z,12.40
2017-09-14T12:16:50.582Z,12.40
2017-09-14T12:19:18.082Z,12.30
2017-09-14T12:21:45.577Z,12.10
2017-09-14T12:24:13.850Z,12.30
2017-09-14T12:26:42.114Z,12.30
2017-09-14T12:29:11.022Z,12.20
2017-09-14T12:31:39.279Z,12.20
2017-09-14T12:34:06.786Z,12.10
2017-09-14T12:36:34.266Z,12.10
2017-09-14T12:39:01.761Z,12.30
2017-09-14T12:41:29.273Z,12.30
2017-09-14T12:43:56.778Z,12.20
2017-09-14T12:46:24.252Z,12.30
2017-09-14T12:48:52.519Z,12.60
2017-09-14T12:51:21.713Z,12.70
2017-09-14T12:53:49.219Z,12.70
2017-09-14T12:56:16.695Z,12.70
2017-09-14T12:58:44.203Z,12.80
2017-09-14T13:01:12.442Z,12.60
2017-09-14T13:03:39.962Z,12.60
2017-09-14T13:06:07.446Z,12.50
2017-09-14T13:08:34.949Z,12.40
2017-09-14T13:11:03.244Z,12.90
2017-09-14T13:13:32.001Z,13.00
2017-09-14T13:16:00.278Z,12.90
2017-09-14T13:18:28.288Z,12.90
2017-09-14T13:20:55.795Z,12.90
2017-09-14T13:23:23.275Z,13.00
2017-09-14T13:25:51.538Z,13.10
2017-09-14T13:28:19.040Z,13.10
2017-09-14T13:30:46.525Z,13.10
2017-09-14T13:33:14.024Z,13.20
2017-09-14T13:35:42.280Z,13.30
2017-09-14T13:38:10.526Z,13.30
2017-09-14T13:40:38.037Z,13.30
2017-09-14T13:43:06.285Z,13.40
2017-09-14T13:45:33.777Z,13.40
2017-09-14T13:48:02.019Z,13.00
2017-09-14T13:50:29.526Z,13.00
2017-09-14T13:52:57.009Z,13.20
2017-09-14T13:55:24.548Z,13.20
2017-09-14T13:57:52.032Z,13.00
2017-09-14T14:00:19.521Z,13.10
2017-09-14T14:02:47.038Z,13.20
2017-09-14T14:05:14.542Z,13.20
2017-09-14T14:07:42.038Z,12.90
2017-09-14T14:10:09.538Z,13.20
2017-09-14T14:12:37.064Z,13.20
2017-09-14T14:15:04.569Z,13.20
2017-09-14T14:17:32.066Z,13.10
2017-09-14T14:20:00.913Z,13.00
2017-09-14T14:22:28.416Z,13.00
2017-09-14T14:24:55.899Z,12.90
2017-09-14T14:27:23.416Z,12.60
2017-09-14T14:29:51.667Z,13.00
2017-09-14T14:32:19.949Z,13.20
2017-09-14T14:34:47.443Z,13.20
2017-09-14T14:37:14.934Z,13.30
2017-09-14T14:39:42.436Z,13.00
2017-09-14T14:42:10.912Z,12.90
2017-09-14T14:44:39.161Z,12.90
2017-09-14T14:47:06.917Z,12.90
2017-09-14T14:49:34.414Z,13.00
2017-09-14T14:52:02.689Z,12.90
2017-09-14T14:54:30.963Z,12.90
2017-09-14T14:56:59.218Z,13.00
2017-09-14T14:59:26.719Z,13.00
2017-09-14T15:01:54.199Z,13.10
2017-09-14T15:04:21.688Z,13.00
2017-09-14T15:06:49.186Z,12.90
2017-09-14T15:09:16.680Z,12.90
2017-09-14T15:11:44.158Z,13.00
2017-09-14T15:14:11.654Z,13.10
2017-09-14T15:16:39.929Z,13.00
2017-09-14T15:19:08.208Z,13.00
2017-09-14T15:21:36.471Z,13.20
2017-09-14T15:24:03.975Z,13.10
2017-09-14T15:26:31.484Z,13.10
2017-09-14T15:28:59.759Z,13.10
2017-09-14T15:31:27.259Z,13.10
2017-09-14T15:33:54.757Z,13.40
2017-09-14T15:36:22.234Z,13.40
2017-09-14T15:38:55.518Z,13.30
2017-09-14T15:41:28.725Z,13.30
2017-09-14T15:44:01.903Z,13.20
2017-09-14T15:46:29.384Z,13.10
2017-09-14T15:49:03.387Z,12.80
2017-09-14T15:51:37.377Z,12.60
2017-09-14T15:54:04.875Z,12.60
2017-09-14T15:56:32.362Z,12.50
2017-09-14T15:58:59.991Z,12.60
2017-09-14T16:01:27.485Z,12.30
2017-09-14T16:03:54.999Z,12.20
2017-09-14T16:06:23.237Z,12.00
2017-09-14T16:08:51.161Z,12.00
2017-09-14T16:11:18.662Z,12.00
2017-09-14T16:13:46.156Z,12.00
2017-09-14T16:16:14.411Z,12.10
2017-09-14T16:18:41.918Z,12.10
2017-09-14T16:21:09.402Z,12.30
2017-09-14T16:23:36.889Z,12.10
2017-09-14T16:26:04.378Z,12.30
2017-09-14T16:28:31.850Z,12.30
2017-09-14T16:30:59.354Z,12.90
2017-09-14T16:33:28.452Z,13.10
2017-09-14T16:35:55.949Z,13.10
2017-09-14T16:38:23.455Z,13.30
2017-09-14T16:40:50.983Z,13.70
2017-09-14T16:43:18.496Z,14.00
2017-09-14T16:45:45.992Z,14.40
2017-09-14T16:48:13.485Z,14.60
2017-09-14T16:50:40.991Z,14.90
2017-09-14T16:53:10.179Z,14.70
2017-09-14T16:55:38.447Z,14.40
2017-09-14T16:58:06.701Z,13.90
2017-09-14T17:00:34.197Z,13.90
2017-09-14T17:03:02.478Z,13.20
2017-09-14T17:05:30.729Z,12.60
2017-09-14T17:07:58.212Z,12.60
2017-09-14T17:10:26.463Z,12.00
2017-09-14T17:12:53.957Z,12.00
2017-09-14T17:15:22.374Z,12.10
2017-09-14T17:17:50.878Z,12.00
2017-09-14T17:20:18.371Z,12.00
2017-09-14T17:22:45.871Z,11.80
2017-09-14T17:25:13.368Z,11.70
2017-09-14T17:27:41.637Z,11.70
2017-09-14T17:30:09.130Z,11.70
2017-09-14T17:32:36.626Z,11.60
2017-09-14T17:35:04.139Z,11.60
2017-09-14T17:37:33.032Z,11.40
2017-09-14T17:40:00.514Z,11.30
2017-09-14T17:42:28.011Z,11.30
2017-09-14T17:45:06.402Z,11.20
2017-09-14T17:47:33.906Z,11.20
2017-09-14T17:50:02.175Z,11.30
2017-09-14T17:52:30.446Z,11.10
2017-09-14T17:54:58.729Z,11.20
2017-09-14T17:57:26.996Z,11.00
2017-09-14T17:59:54.501Z,10.90
2017-09-14T18:02:22.003Z,10.90
2017-09-14T18:04:49.482Z,10.90
2017-09-14T18:07:17.751Z,11.00
2017-09-14T18:09:50.352Z,11.00
2017-09-14T18:12:17.844Z,11.00
2017-09-14T18:14:46.105Z,10.90
2017-09-14T18:17:13.589Z,10.90
2017-09-14T18:19:41.094Z,11.00
2017-09-14T18:22:09.349Z,11.00
2017-09-14T18:24:36.856Z,11.00
2017-09-14T18:27:04.359Z,11.10
2017-09-14T18:29:31.858Z,10.90
2017-09-14T18:31:59.338Z,11.00
2017-09-14T18:34:26.833Z,11.10
2017-09-14T18:36:54.340Z,11.10
2017-09-14T18:39:21.847Z,10.90
2017-09-14T18:41:49.321Z,11.10
2017-09-14T18:44:18.428Z,11.10
2017-09-14T18:46:46.698Z,11.10
2017-09-14T18:49:14.975Z,11.20
2017-09-14T18:51:43.221Z,11.20
2017-09-14T18:54:10.730Z,11.20
2017-09-14T18:56:38.273Z,11.20
2017-09-14T18:59:06.555Z,11.20
2017-09-14T19:01:34.812Z,11.20
2017-09-14T19:04:02.304Z,11.20
2017-09-14T19:06:29.805Z,11.20
2017-09-14T19:08:57.300Z,11.10
2017-09-14T19:11:32.391Z,11.20
2017-09-14T19:13:59.877Z,11.20
2017-09-14T19:16:27.365Z,11.30
2017-09-14T19:18:54.865Z,11.50
2017-09-14T19:21:22.387Z,11.50
2017-09-14T19:23:50.820Z,11.30
2017-09-14T19:26:19.239Z,11.30
2017-09-14T19:31:40.995Z,11.30
2017-09-14T19:34:08.469Z,11.30
2017-09-14T19:36:35.959Z,11.20
2017-09-14T19:39:03.452Z,11.30
2017-09-14T19:41:30.953Z,11.20
2017-09-14T19:43:58.448Z,11.20
2017-09-14T19:46:25.956Z,11.20
2017-09-14T19:48:53.466Z,10.90
2017-09-14T19:51:20.958Z,10.90
2017-09-14T19:53:48.433Z,10.90
2017-09-14T19:56:15.927Z,11.00
2017-09-14T19:58:43.429Z,11.10
2017-09-14T20:01:10.943Z,11.00
2017-09-14T20:03:44.975Z,11.10
2017-09-14T20:06:13.235Z,11.10
2017-09-14T20:08:40.731Z,11.10
2017-09-14T20:11:08.235Z,11.00
2017-09-14T20:13:35.716Z,11.00
2017-09-14T20:16:03.207Z,11.00
2017-09-14T20:18:30.707Z,11.00
2017-09-14T20:20:58.195Z,11.10
2017-09-14T20:23:26.461Z,11.00
2017-09-14T20:25:53.950Z,11.00
2017-09-14T20:28:21.468Z,11.20
2017-09-14T20:30:48.954Z,11.20
2017-09-14T20:33:17.232Z,11.20
2017-09-14T20:35:45.493Z,11.20
2017-09-14T20:38:13.015Z,11.20
2017-09-14T20:40:40.506Z,11.20
2017-09-14T20:43:08.005Z,11.10
2017-09-14T20:45:35.497Z,11.00
2017-09-14T20:48:02.986Z,10.80
2017-09-14T20:50:31.235Z,10.80
2017-09-14T20:52:58.725Z,10.80
2017-09-14T20:55:26.978Z,10.80
2017-09-14T20:57:54.465Z,10.80
2017-09-14T21:00:22.726Z,10.90
2017-09-14T21:02:50.304Z,10.90
2017-09-14T21:05:18.791Z,11.10
2017-09-14T21:07:47.058Z,11.10
2017-09-14T21:10:15.307Z,11.10
2017-09-14T21:12:42.794Z,11.10
2017-09-14T21:15:11.058Z,11.00
2017-09-14T21:17:38.568Z,11.00
2017-09-14T21:20:06.065Z,11.10
2017-09-14T21:22:33.555Z,11.00
2017-09-14T21:25:01.813Z,10.90
2017-09-14T21:27:29.289Z,10.90
2017-09-14T21:29:57.544Z,10.70
2017-09-14T21:32:25.830Z,10.90
2017-09-14T21:34:54.089Z,11.00
2017-09-14T21:37:21.572Z,10.90
2017-09-14T21:39:49.834Z,11.20
2017-09-14T21:42:18.094Z,11.20
2017-09-14T21:44:45.587Z,11.20
2017-09-14T21:47:13.086Z,11.20
2017-09-14T21:49:40.691Z,11.10
2017-09-14T21:52:08.935Z,11.10
2017-09-14T21:54:36.439Z,11.10
2017-09-14T21:57:03.915Z,11.20
2017-09-14T21:59:37.445Z,11.10
2017-09-14T22:02:04.930Z,11.20
2017-09-14T22:04:32.428Z,11.30
2017-09-14T22:06:59.926Z,11.30
2017-09-14T22:09:28.937Z,11.30
2017-09-14T22:11:56.424Z,11.30
2017-09-14T22:14:23.976Z,11.20
2017-09-14T22:16:52.225Z,11.20
2017-09-14T22:19:19.731Z,11.20
2017-09-14T22:21:47.241Z,11.30
2017-09-14T22:24:14.723Z,11.30
2017-09-14T22:26:42.982Z,11.30
2017-09-14T22:29:11.237Z,11.30
2017-09-14T22:31:38.744Z,11.30
2017-09-14T22:34:06.986Z,11.40
2017-09-14T22:36:34.474Z,11.40
2017-09-14T22:39:02.728Z,11.30
2017-09-14T22:41:30.225Z,11.30
2017-09-14T22:43:57.709Z,11.40
2017-09-14T22:46:41.929Z,11.20
2017-09-14T22:49:09.426Z,11.20
2017-09-14T22:51:36.919Z,11.30
2017-09-14T22:54:05.196Z,11.30
2017-09-14T22:56:33.450Z,11.30
2017-09-14T22:59:00.931Z,11.30
2017-09-14T23:01:29.198Z,11.00
2017-09-14T23:03:56.687Z,11.00
2017-09-14T23:06:24.236Z,11.00
2017-09-14T23:08:51.717Z,11.10
2017-09-14T23:11:19.241Z,11.00
2017-09-14T23:13:47.493Z,11.00
2017-09-14T23:16:14.993Z,11.00
2017-09-14T23:18:42.495Z,11.00
2017-09-14T23:21:09.974Z,11.10
2017-09-14T23:23:37.464Z,11.20
2017-09-14T23:26:05.921Z,11.20
2017-09-14T23:28:33.422Z,11.20
2017-09-14T23:31:00.899Z,11.20
2017-09-14T23:33:28.395Z,11.30
2017-09-14T23:35:55.888Z,11.30
2017-09-14T23:38:23.381Z,11.30
2017-09-14T23:40:50.873Z,11.40
2017-09-14T23:43:19.141Z,11.40
2017-09-14T23:45:46.624Z,11.40
2017-09-14T23:48:14.911Z,11.40
2017-09-14T23:50:42.451Z,11.30
2017-09-14T23:53:10.730Z,11.30
2017-09-14T23:55:38.995Z,11.30
2017-09-14T23:58:07.046Z,11.30
